NCAR-RAP Real-Time Weather Data

Output produced by METARs form (13 November 2019  17:33 UTC)
found at http://weather.rap.ucar.edu/surface/
 
Conditions at: KTYQ observed 13 November 2019  17:15 UTC
Temperature: -5.7°C (22°F)
Dewpoint: -10.9°C (12°F) [RH = 67%]
Pressure (altimeter): 30.33 inches Hg (1027.2 mb)
Winds: from the SSW (210 degrees) at 10 MPH (9 knots; 4.7 m/s)
Visibility: 10 or more miles (16+ km)
Ceiling: at least 12,000 feet AGL
Clouds: sky clear below 12,000 feet AGL
Present Weather: automated observation with no human augmentation;
there may or may not be significant weather present at this time
KTYQ 131715Z AUTO 21009KT 10SM CLR M06/M11 A3033 RMK AO2 T10571109